createdAt,value
2022-07-29T00:00:42.289Z,52
2022-07-29T00:10:44.284Z,52
2022-07-29T00:20:46.840Z,53
2022-07-29T00:30:48.785Z,53
2022-07-29T00:40:50.798Z,54
2022-07-29T00:50:53.283Z,54
2022-07-29T01:00:56.001Z,54
2022-07-29T01:10:57.802Z,55
2022-07-29T01:20:59.913Z,55
2022-07-29T01:41:04.405Z,56
2022-07-29T02:01:09.100Z,57
2022-07-29T02:11:11.713Z,58
2022-07-29T02:21:14.955Z,58
2022-07-29T02:31:15.571Z,58
2022-07-29T02:41:17.289Z,59
2022-07-29T02:51:41.006Z,60
2022-07-29T03:01:22.299Z,60
2022-07-29T03:11:39.040Z,60
2022-07-29T03:21:25.676Z,61
2022-07-29T03:31:28.026Z,61
2022-07-29T03:41:30.534Z,61
2022-07-29T03:51:34.323Z,62
2022-07-29T04:01:35.095Z,62
2022-07-29T04:11:59.193Z,62
2022-07-29T04:21:39.002Z,63
2022-07-29T04:31:41.392Z,63
2022-07-29T04:41:43.092Z,64
2022-07-29T04:51:45.221Z,64
2022-07-29T05:01:46.981Z,64
2022-07-29T05:11:48.879Z,63
2022-07-29T05:21:51.494Z,63
2022-07-29T05:31:53.397Z,64
2022-07-29T05:41:55.709Z,66
2022-07-29T05:51:57.788Z,68
2022-07-29T06:12:02.016Z,72
2022-07-29T06:22:04.684Z,73
2022-07-29T06:32:06.749Z,73
2022-07-29T06:42:09.110Z,74
2022-07-29T06:52:10.804Z,77
2022-07-29T07:02:12.563Z,78
2022-07-29T07:12:14.237Z,81
2022-07-29T07:22:16.626Z,81
2022-07-29T07:32:19.034Z,81
2022-07-29T07:42:20.830Z,80
2022-07-29T07:45:12.855Z,80
2022-07-29T07:52:32.414Z,79
2022-07-29T08:02:34.770Z,76
2022-07-29T08:12:36.795Z,73
2022-07-29T08:22:39.469Z,71
2022-07-29T08:32:53.474Z,66
2022-07-29T08:42:43.770Z,65
2022-07-29T08:52:45.525Z,66
2022-07-29T09:02:48.118Z,67
2022-07-29T09:22:51.974Z,68
2022-07-29T09:32:53.896Z,68
2022-07-29T09:42:56.151Z,68
2022-07-29T09:52:58.109Z,70
2022-07-29T10:03:00.709Z,70
2022-07-29T10:13:07.087Z,70
2022-07-29T10:43:09.591Z,74
2022-07-29T10:53:11.349Z,76
2022-07-29T11:03:13.787Z,77
2022-07-29T11:23:18.271Z,78
2022-07-29T11:33:20.242Z,79
2022-07-29T12:03:33.111Z,79
2022-07-29T12:13:37.018Z,78
2022-07-29T12:53:38.168Z,71
2022-07-29T13:03:39.955Z,70
2022-07-29T13:13:42.534Z,68
2022-07-29T13:23:44.802Z,66
2022-07-29T13:33:46.943Z,65
2022-07-29T13:43:50.069Z,63
2022-07-29T13:53:51.404Z,61
2022-07-29T14:13:55.305Z,58
2022-07-29T15:04:06.596Z,51
2022-07-29T15:14:08.575Z,50
2022-07-29T15:44:15.016Z,48
2022-07-29T16:14:22.408Z,48
2022-07-29T16:24:24.713Z,49
2022-07-29T16:34:26.994Z,48
2022-07-29T16:44:29.441Z,48
2022-07-29T16:54:31.285Z,48
2022-07-29T17:04:33.499Z,48
2022-07-29T17:14:35.622Z,48
2022-07-29T17:24:38.104Z,48
2022-07-29T17:34:40.230Z,49
2022-07-29T17:44:41.962Z,49
2022-07-29T17:54:43.702Z,50
2022-07-29T18:04:46.311Z,50
2022-07-29T18:14:48.109Z,51
2022-07-29T19:04:58.913Z,55
2022-07-29T20:05:11.271Z,59
2022-07-29T20:15:14.813Z,60
2022-07-29T20:35:17.575Z,62
2022-07-29T21:05:24.793Z,66
2022-07-29T21:15:27.007Z,67
2022-07-29T21:25:28.642Z,68
2022-07-29T21:35:58.843Z,70
2022-07-29T21:55:34.627Z,71
2022-07-29T22:05:36.637Z,72
2022-07-29T22:15:38.527Z,72
2022-07-29T22:35:43.303Z,72
2022-07-29T22:55:47.644Z,74
2022-07-29T23:05:49.923Z,75
2022-07-29T23:15:51.677Z,75
2022-07-29T23:25:54.189Z,75
2022-07-29T23:35:56.310Z,76
2022-07-29T23:45:58.479Z,77
2022-07-29T23:56:00.512Z,78
